Weather at Points North Landing Airport

Public forecast

Using degrees Celsius for public forecast. Weather courtesy of forecast.io.

Closest aviation weather report (METAR) to Points North Landing Airport

Closest report is Key Lake Airport, 78.6 nm (145.5 km) SW. Retrieved 2020/12/02 05:00 UTC (45 minutes ago):

CYKJ 020500Z AUTO 20006KT 9SM CLR M08/M09 A3005 RMK SLP215

Closest aviation forecast (TAF) to Points North Landing Airport

Forecast is more than 6 hours old.

Closest forecast is Key Lake Airport, 78.6 nm (145.5 km) SW. Retrieved 2020/12/01 19:00 UTC (11 hours ago):

TAF CYKJ 011838Z 0119/0124 30015G25KT P6SM OVC012 TEMPO 0119/0124 4SM -SN OVC008 BECMG 0122/0124 28010KT RMK FCST BASED ON AUTO OBS NXT FCST WILL BE ISSUED AT 020945Z